Calpine Corp (CPN) Latest Bloomsberg Price


Mffais Ranking #16 Overall / #1 Industry
Industry: Power Generation

Number of Companies: 233 (Ranking #695 Overall/#2 Industry)
Inflow: $ 521,130 (K) (Ranking #218 Overall/#1 Industry)
Outflow: $ -181,575 (K)
Mffais Flow: $ 339,554 (K) (Ranking #16 Overall/#1 Industry)


Owner CPOR Shares Action Qty Chg Invested (K) Total Current Value (K)
Sailingstone Capital Partners Llc 2016-09-30 19,132,724 New Holding 19,132,724 $ 281,059 $ 281,059
Greenlight Capital Inc 2016-09-30 11,239,800 Added More 5,579,800 $ 81,967 $ 165,112
Hotchkis Wiley Capital Management Llc 2016-09-30 40,068,420 Added More 2,048,803 $ 30,096 $ 588,605
Serengeti Asset Management Lp 2016-09-30 600,000 New Holding 600,000 $ 8,814 $ 8,814
Parametric Portfolio Associates Llc 2016-09-30 1,467,720 Added More 524,159 $ 7,699 $ 21,560
Anchor Bolt Capital Lp 2016-09-30 523,200 New Holding 523,200 $ 7,685 $ 7,685
Walleye Trading Llc 2016-09-30 580,643 Added More 501,790 $ 7,371 $ 8,529
Cedar Hill Associates Llc 2016-09-30 501,450 New Holding 501,450 $ 7,366 $ 7,366
Lombard Odier Asset Management Usa Corp 2016-09-30 390,000 New Holding 390,000 $ 5,729 $ 5,729
Dimensional Fund Advisors Lp 2016-09-30 7,756,973 Added More 384,484 $ 5,648 $ 113,949
Corsair Capital Management L P 2016-09-30 913,571 Added More 351,036 $ 5,156 $ 13,420
Brandywine Global Investment Management Llc 2016-09-30 3,605,839 Added More 349,549 $ 5,134 $ 52,969
Laurion Capital Management Lp 2016-09-30 348,665 Added More 298,610 $ 4,386 $ 5,121
Private Management Group Inc 2016-09-30 1,583,412 Added More 276,942 $ 4,068 $ 23,260
Signpost Capital Advisors Lp 2016-09-30 1,962,463 Added More 264,373 $ 3,883 $ 28,828
Group One Trading L P 2016-09-30 258,614 New Holding 258,614 $ 3,799 $ 3,799
Clearbridge Llc 2016-09-30 9,941,211 Added More 231,570 $ 3,401 $ 146,036
Miller Howard Investments Inc Ny 2016-09-30 746,837 Added More 190,915 $ 2,804 $ 10,971
Contrarian Capital Management L L C 2016-09-30 183,956 New Holding 183,956 $ 2,702 $ 2,702
Guggenheim Capital Llc 2016-09-30 1,100,224 Added More 178,800 $ 2,626 $ 16,162
Granite Investment Advisors Inc 2016-09-30 514,941 Added More 163,295 $ 2,398 $ 7,564
Strs Ohio 2016-09-30 7,431,000 Added More 160,000 $ 2,350 $ 109,161
Carlson Capital L P 2016-09-30 12,555,864 Added More 149,185 $ 2,191 $ 184,445
Sei Investments Co 2016-09-30 219,677 Added More 116,139 $ 1,706 $ 3,227
Rock Point Advisors Llc 2016-09-30 253,170 Added More 110,125 $ 1,617 $ 3,719
Northern Trust Corp 2016-09-30 2,119,466 Added More 105,084 $ 1,543 $ 31,134
Clinton Group Inc 2016-09-30 280,655 Added More 104,617 $ 1,536 $ 4,122
Peak6 Investments L P 2016-09-30 153,307 Added More 103,407 $ 1,519 $ 2,252
Allstate Corp 2016-09-30 101,156 New Holding 101,156 $ 1,485 $ 1,485
Icon Advisers Inc Co 2016-09-30 94,100 New Holding 94,100 $ 1,382 $ 1,382
Breithorn Capital Management 2016-09-30 253,370 Added More 85,900 $ 1,261 $ 3,722
Cipher Capital Lp 2016-09-30 77,611 New Holding 77,611 $ 1,140 $ 1,140
Invictus Rg 2016-09-30 82,779 Added More 70,835 $ 1,040 $ 1,216
Glacier Peak Capital Llc 2016-09-30 70,400 New Holding 70,400 $ 1,034 $ 1,034
Malaga Cove Capital Llc 2016-09-30 64,687 New Holding 64,687 $ 950 $ 950
Korea Investment Corp 2016-09-30 64,200 New Holding 64,200 $ 943 $ 943
Northern Capital Management Llc 2016-09-30 315,855 Added More 57,415 $ 843 $ 4,639
Jane Street Group Llc 2016-09-30 53,566 New Holding 53,566 $ 786 $ 786
Simplex Trading Llc 2016-09-30 50,547 New Holding 50,547 $ 742 $ 742
Springbok Capital Management Llc 2016-09-30 48,500 New Holding 48,500 $ 712 $ 712
Howard Hughes Medical Institute 2016-09-30 62,047 Added More 46,205 $ 678 $ 911
Dekabank Deutsche Girozentrale 2016-09-30 326,862 Added More 45,000 $ 661 $ 4,801
Eii Capital Management Inc 2016-09-30 130,330 Added More 44,900 $ 659 $ 1,914
Eidelman Virant Capital 2016-09-30 204,200 Added More 43,200 $ 634 $ 2,999
Kcg Holdings Inc 2016-09-30 79,723 Added More 41,924 $ 615 $ 1,171
Blackrock Japan Co Ltd 2016-09-30 439,857 Added More 40,989 $ 602 $ 6,461
Tredje Ap-Fonden 2016-09-30 45,203 Added More 39,203 $ 575 $ 664
Timber Hill Llc 2016-09-30 36,996 New Holding 36,996 $ 543 $ 543
A R T Advisors Llc 2016-09-30 53,600 Added More 35,326 $ 518 $ 787
Evanston Investments Inc Dba Evanston Advisors 2016-09-30 446,476 Added More 33,229 $ 488 $ 6,558
Pacad Investment Ltd 2016-09-30 120,988 Added More 32,207 $ 473 $ 1,777
Zurcher Kantonalbank Zurich Cantonalbank 2016-09-30 55,603 Added More 26,700 $ 392 $ 816
Td Asset Management Inc 2016-09-30 47,198 Added More 24,254 $ 356 $ 693
United Services Automobile Association 2016-09-30 24,148 New Holding 24,148 $ 354 $ 354
Bridgewater Associates Lp 2016-09-30 22,700 New Holding 22,700 $ 333 $ 333
M T Bank Corp 2016-09-30 21,570 New Holding 21,570 $ 316 $ 316
Tower Research Capital Llc Trc 2016-09-30 21,889 Added More 19,964 $ 293 $ 321
Skandinaviska Enskilda Banken Ab Publ 2016-09-30 71,400 Added More 19,700 $ 289 $ 1,048
Delta Lloyd Nv 2016-09-30 29,344 Added More 18,906 $ 277 $ 431
Northpointe Capital Llc 2016-09-30 40,397 Added More 18,086 $ 265 $ 593
Cutler Group Lp 2016-09-30 88,965 Added More 18,028 $ 264 $ 1,306
Sg Americas Securities Llc 2016-09-30 28,100 Added More 15,267 $ 224 $ 412
Trellus Management Company Llc 2016-09-30 15,000 New Holding 15,000 $ 220 $ 220
Gsa Capital Partners Llp 2016-09-30 13,120 New Holding 13,120 $ 192 $ 192
Bokf Na 2016-09-30 48,078 Added More 11,286 $ 165 $ 706
Rhumbline Advisers 2016-09-30 334,650 Added More 10,777 $ 158 $ 4,916
Waratah Capital Advisors Ltd 2016-09-30 10,373 New Holding 10,373 $ 152 $ 152
Bourgeon Capital Management Llc 2016-09-30 10,000 New Holding 10,000 $ 146 $ 146
Mitsubishi Ufj Trust Banking Corp 2016-09-30 700,375 Added More 9,651 $ 141 $ 10,288
Sumitomo Mitsui Trust Holdings Inc 2016-09-30 1,031,538 Added More 7,451 $ 109 $ 15,153
Seven Bridges Advisors Llc 2016-09-30 13,941 Added More 7,009 $ 102 $ 204
First Mercantile Trust Co 2016-09-30 59,797 Added More 6,955 $ 102 $ 878
Creative Planning 2016-09-30 50,027 Added More 6,715 $ 98 $ 734
California State Teachers Retirement System 2016-09-30 784,760 Added More 6,600 $ 96 $ 11,528
World Asset Management Inc 2016-09-30 18,763 Added More 6,522 $ 95 $ 275
Stifel Financial Corp 2016-09-30 37,948 Added More 6,488 $ 95 $ 557
Sterling Capital Management Llc 2016-09-30 42,553 Added More 6,344 $ 93 $ 625
American International Group Inc 2016-09-30 23,338 Added More 6,074 $ 89 $ 342
Btr Capital Management Inc 2016-09-30 461,532 Added More 5,317 $ 78 $ 6,779
Advisors Asset Management Inc 2016-09-30 4,644 New Holding 4,644 $ 68 $ 68
Nomura Asset Management Co Ltd 2016-09-30 47,850 Added More 3,700 $ 54 $ 702
Aviva Plc 2016-09-30 188,062 Added More 3,454 $ 50 $ 2,762
Pacer Advisors Inc 2016-09-30 38,914 Added More 3,324 $ 48 $ 571
Pictet Asset Management Ltd 2016-09-30 126,300 Added More 3,300 $ 48 $ 1,855
Dnb Asset Management As 2016-09-30 23,451 Added More 3,300 $ 48 $ 344
First Republic Investment Management Inc 2016-09-30 44,235 Added More 2,928 $ 43 $ 649
Meeder Asset Management Inc 2016-09-30 23,493 Added More 2,556 $ 37 $ 345
Aberdeen Asset Management Plc Uk 2016-09-30 55,919 Added More 1,848 $ 27 $ 821
Cadence Capital Management Llc 2016-09-30 50,622 Added More 1,726 $ 25 $ 743
Mitsubishi Ufj Kokusai Asset Management Co Ltd 2016-09-30 50,065 Added More 1,699 $ 24 $ 735
Old Mutual Customised Solutions Proprietary Ltd 2016-09-30 8,600 Added More 1,400 $ 20 $ 126
Ifp Advisors Inc 2016-09-30 2,899 Added More 1,382 $ 20 $ 42
Mackenzie Financial Corp 2016-09-30 38,621 Added More 999 $ 14 $ 567
Quadrant Capital Group Llc 2016-09-30 3,606 Added More 701 $ 10 $ 52
Independent Portfolio Consultants Inc 2016-09-30 8,575 Added More 700 $ 10 $ 125
Kbc Group Nv 2016-09-30 280,814 Added More 562 $ 8 $ 4,125
Burnham Asset Management Corp Ny 2016-06-30 47,250 Added More 520 $ 7 $ 696
Fifth Third Bancorp 2016-09-30 3,270 Added More 365 $ 5 $ 48
Utah Retirement Systems 2016-09-30 65,279 Added More 100 $ 1 $ 958
North Star Investment Management Corp 2016-09-30 400 Added More 100 $ 1 $ 5
Cable Hill Partners Llc 2016-09-30 55 New Holding 55 $ 0 $ 0
Assetmark Inc 2016-09-30 3,757 Added More 45 $ 0 $ 55
Tarbox Group Inc 2016-09-30 100 Added More 35 $ 0 $ 1
Diam Co Ltd 2016-09-30 32,865 No Change 0 $ 0 $ 482
Gabelli Funds Llc 2016-09-30 16,000 No Change 0 $ 0 $ 235
First National Bank Sioux Falls 2016-09-30 8,086 No Change 0 $ 0 $ 118
Nationwide Fund Advisors 2016-09-30 45,252 No Change 0 $ 0 $ 664
Dupont Capital Management Corp 2016-09-30 138,448 No Change 0 $ 0 $ 2,033
Cibc Asset Management Inc 2016-09-30 20,239 No Change 0 $ 0 $ 297
Fca Corp Tx 2016-09-30 20,000 No Change 0 $ 0 $ 293
Shell Asset Management Co 2016-09-30 19,337 No Change 0 $ 0 $ 284
Henderson Group Plc 2016-09-30 43,087 No Change 0 $ 0 $ 632
First Quadrant L P Ca 2016-09-30 42,500 No Change 0 $ 0 $ 624
Bruce Co Inc 2016-09-30 294,849 No Change 0 $ 0 $ 4,331
Round Table Services Llc 2016-09-30 80,500 No Change 0 $ 0 $ 1,182
Hexavest Inc 2016-09-30 20,463 No Change 0 $ 0 $ 300
Sumitomo Mitsui Asset Management Company Ltd 2016-09-30 23,924 No Change 0 $ 0 $ 351
Financial Architects Inc 2016-09-30 157 No Change 0 $ 0 $ 2
American National Insurance Co Tx 2016-09-30 158,375 No Change 0 $ 0 $ 2,326
State Of New Jersey Common Pension Fund D 2016-09-30 65,000 No Change 0 $ 0 $ 954
Qs Investors Llc 2016-09-30 9,761 No Change 0 $ 0 $ 143
Knighthead Capital Management Llc 2016-09-30 2,100,000 No Change 0 $ 0 $ 30,849
Shinko Asset Management Co Ltd 2016-09-30 867 No Change 0 $ 0 $ 12
Mizuho Asset Management Co Ltd 2016-09-30 4,677 No Change 0 $ 0 $ 68
Panagora Asset Management Inc 2016-09-30 29,227 No Change 0 $ 0 $ 429
Horizon Kinetics Llc 2016-09-30 11,798 No Change 0 $ 0 $ 173
Vega Energy Gp Llc 2016-09-30 2,419,850 No Change 0 $ 0 $ 35,547
Fjarde Ap-Fonden Fourth Swedish National Pension Fund 2016-09-30 82,196 No Change 0 $ 0 $ 1,207
Strategic Global Advisors Llc 2016-09-30 97,958 No Change 0 $ 0 $ 1,439
Gulf International Bank Uk Ltd 2016-09-30 104,086 No Change 0 $ 0 $ 1,529
Community Bank Of Raymore 2016-09-30 67,303 No Change 0 $ 0 $ 988
Evanson Asset Management Llc 2016-09-30 11,008 No Change 0 $ 0 $ 161
Acrospire Investment Management Llc 2016-09-30 7,200 No Change 0 $ 0 $ 105
Quinn Opportunity Partners Llc 2016-09-30 46,000 No Change 0 $ 0 $ 675
Bronfman E L Rothschild L P 2016-09-30 114 No Change 0 $ 0 $ 1
Mn Services Vermogensbeheer B V 2016-09-30 8,477 No Change 0 $ 0 $ 124
Nn Investment Partners Holdings N V 2016-09-30 1,823 No Change 0 $ 0 $ 26
First Manhattan Co 2016-09-30 323 No Change 0 $ 0 $ 4
Westpac Banking Corp 2016-09-30 24,875 No Change 0 $ 0 $ 365
Pnc Financial Services Group Inc 2016-09-30 5,883 No Change 0 $ 0 $ 86
Teachers Insurance Annuity Association Of America 2016-09-30 2,228,216 No Change 0 $ 0 $ 32,732
Synovus Financial Corp 2016-09-30 91 No Change 0 $ 0 $ 1
Brown Brothers Harriman Co 2016-09-30 2,045 No Change 0 $ 0 $ 30
Tortoise Capital Advisors L L C 2016-09-30 68 Sold Some -11 $ -0 $ 0
Cwm Llc 2016-09-30 0 Sold All -27 $ -0 $ 0
Ladenburg Thalmann Financial Services Inc 2016-09-30 1,850 Sold Some -31 $ -0 $ 27
Proficio Capital Partners Llc 2016-09-30 0 Sold All -69 $ -1 $ 0
Msi Financial Services Inc 2016-09-30 2,098 Sold Some -86 $ -1 $ 30
Amp Capital Investors Ltd 2016-09-30 95,623 Sold Some -100 $ -1 $ 1,404
Advisor Group Inc 2016-09-30 3,562 Sold Some -152 $ -2 $ 52
Mv Capital Management Inc 2016-09-30 0 Sold All -156 $ -2 $ 0
Zions Bancorporation 2016-09-30 3,071 Sold Some -160 $ -2 $ 45
Regions Financial Corp 2016-09-30 29,633 Sold Some -181 $ -2 $ 435
Jacobi Capital Management Llc 2016-09-30 0 Sold All -216 $ -3 $ 0
Gideon Capital Advisors Inc 2016-09-30 13,368 Sold Some -216 $ -3 $ 196
Frontier Investment Mgmt Co 2016-09-30 83,795 Sold Some -220 $ -3 $ 1,230
Plante Moran Financial Advisors Llc 2016-09-30 0 Sold All -260 $ -3 $ 0
Ncm Capital Advisers Inc 2016-09-30 0 Sold All -386 $ -5 $ 0
Ns Partners Ltd 2016-09-30 363,909 Sold Some -646 $ -9 $ 5,345
Raymond James Financial Services Advisors Inc 2016-09-30 80,529 Sold Some -719 $ -10 $ 1,182
Quantbot Technologies Lp 2016-09-30 5,581 Sold Some -742 $ -10 $ 81
Profund Advisors Llc 2016-09-30 36,532 Sold Some -747 $ -10 $ 536
Community Bank Trust Waco Texas 2016-09-30 64,913 Sold Some -923 $ -13 $ 953
Northwestern Mutual Wealth Management Co 2016-09-30 575 Sold Some -933 $ -13 $ 8
Seabridge Investment Advisors Llc 2016-09-30 67,749 Sold Some -1,245 $ -18 $ 995
Advisory Services Network Llc 2016-09-30 0 Sold All -1,500 $ -22 $ 0
Point72 Asia Hong Kong Ltd 2016-09-30 0 Sold All -1,600 $ -23 $ 0
Glg Llc 2016-09-30 21,072 Sold Some -1,894 $ -27 $ 309
Reliance Trust Co Of Delaware 2016-09-30 10,561 Sold Some -1,982 $ -29 $ 155
Ngam Advisors L P 2016-09-30 16,205 Sold Some -1,997 $ -29 $ 238
Envestnet Asset Management Inc 2016-09-30 2,552 Sold Some -2,385 $ -35 $ 37
Checchi Capital Advisers Llc 2016-09-30 0 Sold All -2,424 $ -35 $ 0
Ibm Retirement Fund 2016-09-30 33,499 Sold Some -2,617 $ -38 $ 492
Hsbc Holdings Plc 2016-09-30 190,335 Sold Some -3,243 $ -47 $ 2,796
Commerzbank Aktiengesellschaft Fi 2016-09-30 14,283 Sold Some -3,821 $ -56 $ 209
Sumitomo Life Insurance Co 2016-09-30 34,310 Sold Some -4,311 $ -63 $ 504
Ls Investment Advisors Llc 2016-09-30 8,061 Sold Some -4,561 $ -67 $ 118
Twin Tree Management Lp 2016-09-30 27,077 Sold Some -4,623 $ -67 $ 397
Us Bancorp De 2016-09-30 23,161 Sold Some -7,384 $ -108 $ 340
Swiss National Bank 2016-09-30 942,158 Sold Some -7,600 $ -111 $ 13,840
M Kraus Co 2016-09-30 151,020 Sold Some -8,814 $ -129 $ 2,218
Mizuho Trust Banking Co Ltd 2016-09-30 541,662 Sold Some -9,189 $ -134 $ 7,957
Natixis Asset Management 2016-09-30 36,782 Sold Some -9,675 $ -142 $ 540
Livforsakringsbolaget Skandia Omsesidigt 2016-09-30 26,595 Sold Some -9,943 $ -146 $ 390
Fox Run Management L L C 2016-09-30 0 Sold All -10,900 $ -160 $ 0
Raymond James Associates 2016-09-30 42,784 Sold Some -11,734 $ -172 $ 628
Hancock Holding Co 2016-09-30 565,410 Sold Some -11,980 $ -175 $ 8,305
Virtu Financial Llc 2016-09-30 0 Sold All -12,115 $ -177 $ 0
Teachers Advisors Inc 2016-09-30 878,541 Sold Some -14,095 $ -207 $ 12,905
Boothbay Fund Management Llc 2016-09-30 0 Sold All -14,967 $ -219 $ 0
Commonwealth Bank Of Australia 2016-09-30 77,822 Sold Some -15,100 $ -221 $ 1,143
Aperio Group Llc 2016-09-30 213,968 Sold Some -18,140 $ -266 $ 3,143
Legal General Group Plc 2016-09-30 1,554,581 Sold Some -21,719 $ -319 $ 22,836
Rs Investment Management Co Llc 2016-06-30 2,879,467 Sold Some -22,316 $ -329 $ 42,472
Cubist Systematic Strategies Llc 2016-09-30 36,814 Sold Some -23,139 $ -339 $ 540
Spot Trading L L C 2016-09-30 29,700 Sold Some -23,900 $ -351 $ 436
Blackrock Inc 2016-09-30 433,522 Sold Some -29,371 $ -431 $ 6,368
George Kaiser Family Foundation 2016-06-30 93,118 Sold Some -33,762 $ -497 $ 1,373
British Columbia Investment Management Corp 2016-09-30 30,484 Sold Some -38,100 $ -559 $ 447
Verition Fund Management Llc 2016-09-30 22,796 Sold Some -40,091 $ -588 $ 334
Tph Asset Management Llc 2016-09-30 93,420 Sold Some -41,051 $ -603 $ 1,372
Nisa Investment Advisors Llc 2016-09-30 106,800 Sold Some -44,000 $ -646 $ 1,568
Andra Ap-Fonden 2016-09-30 111,400 Sold Some -53,700 $ -788 $ 1,636
Columbia Partners L L C Investment Management 2016-09-30 0 Sold All -61,368 $ -901 $ 0
Squarepoint Ops Llc 2016-09-30 0 Sold All -63,797 $ -937 $ 0
Weiss Multi-Strategy Advisers Llc 2016-09-30 163,123 Sold Some -64,432 $ -946 $ 2,396
Oregon Public Employees Retirement Fund 2016-09-30 0 Sold All -67,783 $ -995 $ 0
Pyrrho Capital Management Lp 2016-09-30 0 Sold All -70,000 $ -1,028 $ 0
Trexquant Investment Lp 2016-09-30 0 Sold All -79,500 $ -1,167 $ 0
Addison Clark Management L L C 2016-09-30 149,024 Sold Some -115,000 $ -1,689 $ 2,189
Blackrock Investment Management Llc 2016-09-30 322,431 Sold Some -115,336 $ -1,694 $ 4,736
Ecofin Ltd 2016-09-30 0 Sold All -122,130 $ -1,794 $ 0
New York State Common Retirement Fund 2016-09-30 748,400 Sold Some -125,600 $ -1,845 $ 10,993
Putnam Investments Llc 2016-09-30 8,656,893 Sold Some -163,709 $ -2,404 $ 127,169
Gam Holding Ag 2016-09-30 19,414 Sold Some -174,636 $ -2,565 $ 285
Stevens Capital Management Lp 2016-09-30 0 Sold All -176,753 $ -2,596 $ 0
Oshaughnessy Asset Management Llc 2016-09-30 0 Sold All -182,078 $ -2,674 $ 0
Americafirst Capital Management Llc 2016-09-30 24,745 Sold Some -203,655 $ -2,991 $ 363
Fort Warren Capital Management Lp 2016-09-30 0 Sold All -205,845 $ -3,023 $ 0
Altalis Capital Management Llc 2016-09-30 356,110 Sold Some -215,000 $ -3,158 $ 5,231
Vollero Beach Capital Partners Llc 2016-09-30 0 Sold All -288,510 $ -4,238 $ 0
Armstrong Shaw Associates Inc Ct 2016-09-30 0 Sold All -369,731 $ -5,431 $ 0
Old Mutual Global Investors Uk Ltd 2016-09-30 0 Sold All -428,147 $ -6,289 $ 0
Luminus Management Llc 2016-09-30 0 Sold All -510,482 $ -7,498 $ 0
Sound Shore Management Inc Ct 2016-09-30 9,288,982 Sold Some -630,360 $ -9,259 $ 136,455
Key Colony Management Llc 2016-09-30 0 Sold All -649,054 $ -9,534 $ 0
Emerald Acquisition Ltd 2016-09-30 220,794 Sold Some -675,782 $ -9,927 $ 3,243
Peconic Partners Llc 2016-09-30 116,199 Sold Some -749,840 $ -11,015 $ 1,706
Teacher Retirement System Of Texas 2016-09-30 13,088 Sold Some -793,813 $ -11,661 $ 192
Ahl Partners Llp 2016-09-30 10,988 Sold Some -928,125 $ -13,634 $ 161
Royal London Asset Management Ltd 2016-06-30 106,216 Sold Some -1,024,883 $ -15,117 $ 1,566
Eventide Asset Management Llc 2016-09-30 500,000 Sold Some -1,030,000 $ -15,130 $ 7,345
Cobalt Capital Management Inc 2016-09-30 0 Sold All -1,492,758 $ -21,928 $ 0